createdAt,value
2022-10-20T00:03:55.170Z,100.00
2022-10-20T00:08:57.946Z,100.00
2022-10-20T00:14:00.421Z,100.00
2022-10-20T00:19:02.065Z,100.00
2022-10-20T00:24:03.870Z,100.00
2022-10-20T00:29:05.617Z,100.00
2022-10-20T00:34:07.310Z,100.00
2022-10-20T00:39:08.969Z,100.00
2022-10-20T00:44:46.856Z,100.00
2022-10-20T00:49:48.673Z,100.00
2022-10-20T00:54:50.309Z,100.00
2022-10-20T00:59:52.005Z,100.00
2022-10-20T01:04:53.687Z,100.00
2022-10-20T01:09:55.690Z,100.00
2022-10-20T01:15:35.041Z,100.00
2022-10-20T01:21:05.096Z,100.00
2022-10-20T01:26:28.416Z,100.00
2022-10-20T01:31:34.062Z,100.00
2022-10-20T01:36:47.735Z,100.00
2022-10-20T01:41:51.248Z,100.00
2022-10-20T01:46:52.911Z,100.00
2022-10-20T01:51:55.106Z,100.00
2022-10-20T01:57:02.020Z,100.00
2022-10-20T02:02:28.016Z,100.00
2022-10-20T02:07:30.186Z,100.00
2022-10-20T02:12:34.937Z,100.00
2022-10-20T02:17:37.194Z,100.00
2022-10-20T02:22:39.661Z,100.00
2022-10-20T02:27:43.360Z,100.00
2022-10-20T02:32:49.329Z,100.00
2022-10-20T02:37:50.998Z,100.00
2022-10-20T02:42:52.726Z,100.00
2022-10-20T02:47:54.393Z,100.00
2022-10-20T02:52:56.061Z,100.00
2022-10-20T02:57:57.767Z,100.00
2022-10-20T03:02:59.438Z,100.00
2022-10-20T03:08:01.081Z,100.00
2022-10-20T03:13:03.011Z,100.00
2022-10-20T03:18:04.878Z,100.00
2022-10-20T03:23:06.542Z,100.00
2022-10-20T03:28:08.167Z,100.00
2022-10-20T03:33:09.811Z,100.00
2022-10-20T03:38:11.480Z,100.00
2022-10-20T03:43:15.228Z,100.00
2022-10-20T03:48:16.942Z,100.00
2022-10-20T03:53:18.683Z,100.00
2022-10-20T03:58:20.415Z,100.00
2022-10-20T04:03:22.037Z,100.00
2022-10-20T04:08:23.696Z,100.00
2022-10-20T04:13:25.446Z,100.00
2022-10-20T04:18:27.113Z,100.00
2022-10-20T04:23:28.781Z,100.00
2022-10-20T04:28:30.476Z,100.00
2022-10-20T04:33:32.148Z,100.00
2022-10-20T04:38:34.074Z,100.00
2022-10-20T04:43:35.725Z,100.00
2022-10-20T04:48:37.690Z,100.00
2022-10-20T04:53:39.436Z,100.00
2022-10-20T04:58:41.059Z,100.00
2022-10-20T05:03:42.743Z,100.00
2022-10-20T05:08:46.495Z,100.00
2022-10-20T05:13:48.306Z,100.00
2022-10-20T05:18:52.226Z,100.00
2022-10-20T05:23:57.829Z,100.00
2022-10-20T05:28:59.562Z,100.00
2022-10-20T05:34:01.190Z,100.00
2022-10-20T05:39:02.906Z,100.00
2022-10-20T05:44:05.239Z,100.00
2022-10-20T05:49:07.302Z,100.00
2022-10-20T05:54:10.543Z,100.00
2022-10-20T05:59:12.242Z,100.00
2022-10-20T06:04:19.202Z,100.00
2022-10-20T06:09:21.181Z,100.00
2022-10-20T06:14:22.927Z,100.00
2022-10-20T06:19:25.045Z,100.00
2022-10-20T06:24:26.677Z,100.00
2022-10-20T06:29:28.391Z,100.00
2022-10-20T06:34:30.242Z,100.00
2022-10-20T06:39:31.965Z,100.00
2022-10-20T06:44:33.624Z,100.00
2022-10-20T06:49:35.293Z,100.00
2022-10-20T06:54:36.973Z,100.00
2022-10-20T06:59:38.767Z,100.00
2022-10-20T07:04:40.479Z,100.00
2022-10-20T07:09:42.153Z,100.00
2022-10-20T07:14:43.800Z,100.00
2022-10-20T07:19:45.494Z,100.00
2022-10-20T07:24:47.166Z,100.00
2022-10-20T07:29:48.787Z,100.00
2022-10-20T07:34:50.434Z,100.00
2022-10-20T07:39:52.111Z,100.00
2022-10-20T07:44:53.766Z,100.00
2022-10-20T07:49:55.426Z,100.00
2022-10-20T07:55:06.411Z,100.00
2022-10-20T08:00:19.278Z,100.00
2022-10-20T08:05:21.016Z,100.00
2022-10-20T08:10:22.756Z,100.00
2022-10-20T08:15:24.486Z,100.00
2022-10-20T08:20:30.625Z,100.00
2022-10-20T08:25:33.243Z,100.00
2022-10-20T08:30:37.764Z,100.00
2022-10-20T08:35:39.415Z,100.00
2022-10-20T08:40:41.837Z,100.00
2022-10-20T08:45:43.651Z,100.00
2022-10-20T08:50:46.459Z,100.00
2022-10-20T08:55:48.204Z,100.00
2022-10-20T09:00:55.417Z,100.00
2022-10-20T09:06:01.688Z,100.00
2022-10-20T09:11:03.897Z,100.00
2022-10-20T09:16:40.421Z,100.00
2022-10-20T09:21:45.038Z,100.00
2022-10-20T09:26:59.054Z,99.77
2022-10-20T09:32:10.499Z,99.81
2022-10-20T09:37:22.734Z,98.31
2022-10-20T09:42:28.760Z,97.49
2022-10-20T09:47:30.466Z,96.99
2022-10-20T09:52:35.442Z,96.49
2022-10-20T09:57:37.422Z,95.89
2022-10-20T10:02:39.330Z,94.76
2022-10-20T10:07:41.090Z,94.16
2022-10-20T10:12:51.154Z,93.67
2022-10-20T10:17:52.873Z,92.96
2022-10-20T10:23:11.982Z,92.25
2022-10-20T10:28:36.394Z,90.82
2022-10-20T10:33:38.058Z,90.08
2022-10-20T10:38:39.705Z,89.28
2022-10-20T10:44:15.728Z,87.96
2022-10-20T10:49:44.712Z,87.51
2022-10-20T10:55:21.187Z,85.94
2022-10-20T11:01:07.694Z,85.25
2022-10-20T11:06:24.092Z,82.43
2022-10-20T11:12:05.638Z,81.83
2022-10-20T11:17:29.044Z,80.70
2022-10-20T11:22:30.740Z,78.74
2022-10-20T11:27:36.752Z,76.83
2022-10-20T11:33:14.817Z,77.59
2022-10-20T11:38:21.304Z,75.16
2022-10-20T11:43:29.182Z,74.74
2022-10-20T11:48:36.314Z,73.16
2022-10-20T11:54:09.909Z,72.26
2022-10-20T11:59:30.341Z,70.41
2022-10-20T12:04:44.715Z,70.20
2022-10-20T12:09:52.541Z,68.67
2022-10-20T12:15:01.561Z,67.47
2022-10-20T12:20:38.613Z,67.20
2022-10-20T12:25:41.240Z,66.49
2022-10-20T12:30:43.943Z,64.27
2022-10-20T12:35:59.121Z,63.78
2022-10-20T12:41:00.862Z,60.31
2022-10-20T12:46:12.544Z,59.41
2022-10-20T12:51:23.568Z,58.22
2022-10-20T12:56:25.266Z,58.38
2022-10-20T13:01:28.509Z,58.38
2022-10-20T13:06:32.834Z,57.44
2022-10-20T13:11:37.697Z,57.52
2022-10-20T13:16:40.898Z,58.69
2022-10-20T13:21:46.165Z,58.13
2022-10-20T13:26:56.144Z,59.00
2022-10-20T13:32:33.837Z,57.73
2022-10-20T13:38:00.229Z,58.13
2022-10-20T13:43:39.396Z,58.99
2022-10-20T13:48:54.321Z,59.10
2022-10-20T13:53:57.482Z,60.11
2022-10-20T13:59:18.855Z,61.59
2022-10-20T14:04:34.048Z,62.11
2022-10-20T14:09:35.695Z,64.14
2022-10-20T14:14:37.373Z,65.00
2022-10-20T14:19:40.407Z,66.16
2022-10-20T14:24:45.548Z,67.95
2022-10-20T14:29:47.265Z,68.85
2022-10-20T14:34:58.112Z,70.45
2022-10-20T14:40:04.404Z,72.14
2022-10-20T14:45:06.860Z,74.21
2022-10-20T14:50:19.718Z,74.28
2022-10-20T14:55:32.226Z,75.24
2022-10-20T15:00:35.685Z,76.56
2022-10-20T15:05:42.196Z,76.48
2022-10-20T15:10:43.934Z,76.83
2022-10-20T15:15:46.215Z,78.24
2022-10-20T15:20:48.302Z,78.71
2022-10-20T15:26:03.210Z,79.69
2022-10-20T15:31:22.245Z,80.37
2022-10-20T15:36:33.274Z,81.75
2022-10-20T15:41:35.217Z,82.23
2022-10-20T15:46:36.851Z,82.69
2022-10-20T15:51:40.260Z,83.27
2022-10-20T15:56:41.940Z,83.81
2022-10-20T16:01:43.669Z,84.33
2022-10-20T16:06:45.377Z,84.99
2022-10-20T16:11:47.146Z,85.58
2022-10-20T16:16:48.805Z,85.83
2022-10-20T16:21:50.448Z,86.53
2022-10-20T16:26:52.795Z,86.32
2022-10-20T16:31:54.627Z,86.69
2022-10-20T16:36:56.309Z,86.96
2022-10-20T16:41:58.100Z,86.95
2022-10-20T16:46:59.758Z,87.11
2022-10-20T16:52:01.642Z,87.63
2022-10-20T16:57:04.037Z,87.67
2022-10-20T17:02:05.763Z,87.78
2022-10-20T17:07:08.674Z,88.20
2022-10-20T17:12:10.544Z,87.98
2022-10-20T17:17:12.185Z,88.43
2022-10-20T17:22:13.831Z,87.94
2022-10-20T17:27:15.469Z,87.83
2022-10-20T17:32:18.277Z,87.91
2022-10-20T17:37:20.227Z,88.29
2022-10-20T17:42:22.111Z,89.30
2022-10-20T17:47:24.238Z,90.20
2022-10-20T17:52:26.242Z,90.69
2022-10-20T17:57:30.001Z,91.31
2022-10-20T18:02:32.046Z,91.64
2022-10-20T18:07:33.694Z,92.11
2022-10-20T18:12:35.753Z,92.67
2022-10-20T18:17:37.739Z,95.78
2022-10-20T18:22:39.783Z,96.64
2022-10-20T18:27:41.731Z,97.48
2022-10-20T18:32:43.470Z,97.51
2022-10-20T18:37:45.105Z,99.08
2022-10-20T18:42:46.780Z,100.00
2022-10-20T18:47:48.428Z,100.00
2022-10-20T18:52:50.061Z,100.00
2022-10-20T18:57:52.151Z,100.00
2022-10-20T19:02:55.826Z,100.00
2022-10-20T19:07:59.639Z,100.00
2022-10-20T19:13:01.402Z,100.00
2022-10-20T19:18:03.157Z,100.00
2022-10-20T19:23:04.945Z,100.00
2022-10-20T19:28:06.608Z,100.00
2022-10-20T19:33:08.278Z,100.00
2022-10-20T19:38:09.959Z,100.00
2022-10-20T19:43:11.708Z,100.00
2022-10-20T19:48:13.667Z,100.00
2022-10-20T19:53:15.378Z,100.00
2022-10-20T19:58:17.466Z,100.00
2022-10-20T20:03:19.138Z,100.00
2022-10-20T20:08:20.868Z,100.00
2022-10-20T20:13:23.027Z,100.00
2022-10-20T20:18:25.062Z,100.00
2022-10-20T20:23:40.753Z,100.00
2022-10-20T20:28:48.577Z,100.00
2022-10-20T20:33:50.301Z,100.00
2022-10-20T20:38:53.808Z,100.00
2022-10-20T20:43:58.282Z,100.00
2022-10-20T20:49:00.926Z,100.00
2022-10-20T20:54:03.057Z,100.00
2022-10-20T20:59:04.851Z,100.00
2022-10-20T21:04:10.244Z,100.00
2022-10-20T21:09:12.137Z,100.00
2022-10-20T21:14:13.853Z,100.00
2022-10-20T21:19:15.522Z,100.00
2022-10-20T21:24:17.567Z,100.00
2022-10-20T21:29:19.272Z,100.00
2022-10-20T21:34:20.999Z,100.00
2022-10-20T21:39:22.841Z,100.00
2022-10-20T21:44:24.616Z,100.00
2022-10-20T21:49:26.341Z,100.00
2022-10-20T21:54:28.379Z,100.00
2022-10-20T21:59:30.300Z,100.00
2022-10-20T22:04:32.042Z,100.00
2022-10-20T22:09:33.772Z,100.00
2022-10-20T22:14:35.470Z,100.00
2022-10-20T22:19:37.179Z,100.00
2022-10-20T22:24:38.874Z,100.00
2022-10-20T22:29:40.558Z,100.00
2022-10-20T22:34:42.216Z,100.00
2022-10-20T22:39:43.892Z,100.00
2022-10-20T22:44:47.680Z,100.00
2022-10-20T22:49:49.318Z,100.00
2022-10-20T22:54:50.992Z,100.00
2022-10-20T22:59:52.743Z,100.00
2022-10-20T23:04:54.410Z,100.00
2022-10-20T23:09:56.085Z,100.00
2022-10-20T23:14:57.830Z,100.00
2022-10-20T23:19:59.534Z,100.00
2022-10-20T23:25:02.197Z,100.00
2022-10-20T23:30:04.150Z,100.00
2022-10-20T23:35:06.395Z,100.00
2022-10-20T23:40:08.490Z,100.00
2022-10-20T23:45:10.481Z,100.00
2022-10-20T23:50:12.175Z,100.00
2022-10-20T23:55:15.517Z,100.00
